Terminal Aerodrome Forecast
Issued by NWS

Home | Current Version | Previous Version | Text Only | Print | Product List | Glossary On
Versions: 1 2 3 4 5 6 7 8 9 10 11 12 13 14
000
FTUS46 KPDT 171100
TAFRDM
TAF
KRDM 171120Z 1712/1812 VRB04KT P6SM SCT100 BKN150
     FM171500 21005KT P6SM VCSH BKN070
     FM171800 30010KT P6SM -RA BKN040 OVC060
     FM172200 32014KT P6SM -RA BKN030 OVC050
     FM180400 32011KT P6SM BKN050 BKN100=

USA.gov is the U.S. government's official web portal to all federal, state and local government web resources and services.